sensor_id;sensor_type;location;lat;lon;timestamp;pressure;altitude;pressure_sealevel;temperature;humidity
69842;BME280;57138;51.326;-0.068;2023-03-31T00:02:03;97725.41;;;9.16;98.97
69842;BME280;57138;51.326;-0.068;2023-03-31T00:04:41;97712.56;;;9.13;98.77
69842;BME280;57138;51.326;-0.068;2023-03-31T00:07:11;97710.97;;;9.12;99.10
69842;BME280;57138;51.326;-0.068;2023-03-31T00:09:37;97694.13;;;9.11;98.96
69842;BME280;57138;51.326;-0.068;2023-03-31T00:12:05;97695.44;;;9.09;98.36
69842;BME280;57138;51.326;-0.068;2023-03-31T00:14:30;97694.97;;;9.12;98.94
69842;BME280;57138;51.326;-0.068;2023-03-31T00:16:55;97686.13;;;9.11;99.34
69842;BME280;57138;51.326;-0.068;2023-03-31T00:19:22;97691.38;;;9.06;99.10
69842;BME280;57138;51.326;-0.068;2023-03-31T00:21:48;97677.75;;;9.03;99.16
69842;BME280;57138;51.326;-0.068;2023-03-31T00:24:15;97679.25;;;8.98;100.00
69842;BME280;57138;51.326;-0.068;2023-03-31T00:26:41;97666.19;;;8.97;100.00
69842;BME280;57138;51.326;-0.068;2023-03-31T00:29:08;97659.75;;;8.93;100.00
69842;BME280;57138;51.326;-0.068;2023-03-31T00:31:34;97656.16;;;8.87;100.00
69842;BME280;57138;51.326;-0.068;2023-03-31T00:34:00;97625.94;;;8.81;100.00
69842;BME280;57138;51.326;-0.068;2023-03-31T00:36:26;97627.81;;;8.81;100.00
69842;BME280;57138;51.326;-0.068;2023-03-31T00:38:58;97617.72;;;8.83;100.00
69842;BME280;57138;51.326;-0.068;2023-03-31T00:41:26;97601.72;;;8.83;100.00
69842;BME280;57138;51.326;-0.068;2023-03-31T00:44:07;97600.38;;;8.80;100.00
69842;BME280;57138;51.326;-0.068;2023-03-31T00:46:39;97595.84;;;8.81;100.00
69842;BME280;57138;51.326;-0.068;2023-03-31T00:49:33;97585.75;;;8.83;100.00
69842;BME280;57138;51.326;-0.068;2023-03-31T00:52:08;97574.28;;;8.82;100.00
69842;BME280;57138;51.326;-0.068;2023-03-31T00:54:38;97568.16;;;8.82;100.00
69842;BME280;57138;51.326;-0.068;2023-03-31T00:57:05;97551.94;;;8.84;100.00
69842;BME280;57138;51.326;-0.068;2023-03-31T00:59:36;97552.72;;;8.84;100.00
69842;BME280;57138;51.326;-0.068;2023-03-31T01:02:03;97547.72;;;8.88;100.00
69842;BME280;57138;51.326;-0.068;2023-03-31T01:04:45;97525.91;;;8.91;100.00
69842;BME280;57138;51.326;-0.068;2023-03-31T01:07:23;97529.41;;;8.91;100.00
69842;BME280;57138;51.326;-0.068;2023-03-31T01:09:50;97511.78;;;8.90;100.00
69842;BME280;57138;51.326;-0.068;2023-03-31T01:12:18;97480.63;;;8.91;100.00
69842;BME280;57138;51.326;-0.068;2023-03-31T01:14:45;97489.69;;;8.90;100.00
69842;BME280;57138;51.326;-0.068;2023-03-31T01:17:10;97465.94;;;8.88;100.00
69842;BME280;57138;51.326;-0.068;2023-03-31T01:20:25;97469.72;;;8.92;100.00
69842;BME280;57138;51.326;-0.068;2023-03-31T01:23:10;97464.13;;;8.94;100.00
69842;BME280;57138;51.326;-0.068;2023-03-31T01:37:42;97406.19;;;9.06;100.00
69842;BME280;57138;51.326;-0.068;2023-03-31T01:45:43;97386.53;;;9.12;100.00
69842;BME280;57138;51.326;-0.068;2023-03-31T01:48:16;97376.69;;;9.13;100.00
69842;BME280;57138;51.326;-0.068;2023-03-31T01:51:01;97381.50;;;9.16;100.00
69842;BME280;57138;51.326;-0.068;2023-03-31T01:53:54;97363.44;;;9.18;100.00
69842;BME280;57138;51.326;-0.068;2023-03-31T01:56:34;97371.44;;;9.18;100.00
69842;BME280;57138;51.326;-0.068;2023-03-31T01:59:02;97360.28;;;9.21;100.00
69842;BME280;57138;51.326;-0.068;2023-03-31T02:04:12;97349.84;;;9.20;100.00
69842;BME280;57138;51.326;-0.068;2023-03-31T02:06:43;97340.53;;;9.22;100.00
69842;BME280;57138;51.326;-0.068;2023-03-31T02:09:16;97321.28;;;9.15;100.00
69842;BME280;57138;51.326;-0.068;2023-03-31T02:11:45;97315.44;;;9.18;100.00
69842;BME280;57138;51.326;-0.068;2023-03-31T02:14:17;97328.69;;;9.13;100.00
69842;BME280;57138;51.326;-0.068;2023-03-31T02:16:48;97331.44;;;9.18;100.00
69842;BME280;57138;51.326;-0.068;2023-03-31T02:19:16;97304.78;;;9.18;100.00
69842;BME280;57138;51.326;-0.068;2023-03-31T02:21:44;97307.69;;;9.16;100.00
69842;BME280;57138;51.326;-0.068;2023-03-31T02:24:13;97310.91;;;9.18;100.00
69842;BME280;57138;51.326;-0.068;2023-03-31T02:27:02;97293.88;;;9.20;100.00
69842;BME280;57138;51.326;-0.068;2023-03-31T02:29:30;97282.34;;;9.14;100.00
69842;BME280;57138;51.326;-0.068;2023-03-31T02:32:03;97275.22;;;9.20;100.00
69842;BME280;57138;51.326;-0.068;2023-03-31T02:34:32;97253.56;;;9.16;100.00
69842;BME280;57138;51.326;-0.068;2023-03-31T02:36:57;97250.34;;;9.14;100.00
69842;BME280;57138;51.326;-0.068;2023-03-31T02:39:27;97243.41;;;9.13;100.00
69842;BME280;57138;51.326;-0.068;2023-03-31T02:41:55;97232.72;;;9.08;100.00
69842;BME280;57138;51.326;-0.068;2023-03-31T02:44:21;97232.19;;;9.11;100.00
69842;BME280;57138;51.326;-0.068;2023-03-31T02:46:47;97219.91;;;9.10;100.00
69842;BME280;57138;51.326;-0.068;2023-03-31T02:49:15;97235.13;;;9.09;100.00
69842;BME280;57138;51.326;-0.068;2023-03-31T02:57:53;97186.09;;;9.10;100.00
69842;BME280;57138;51.326;-0.068;2023-03-31T03:03:14;97178.84;;;9.06;100.00
69842;BME280;57138;51.326;-0.068;2023-03-31T03:05:57;97174.03;;;9.03;100.00
69842;BME280;57138;51.326;-0.068;2023-03-31T03:08:45;97158.56;;;8.99;100.00
69842;BME280;57138;51.326;-0.068;2023-03-31T03:14:16;97161.47;;;8.98;100.00
69842;BME280;57138;51.326;-0.068;2023-03-31T03:16:49;97142.25;;;8.96;100.00
69842;BME280;57138;51.326;-0.068;2023-03-31T03:19:22;97136.63;;;8.92;100.00
69842;BME280;57138;51.326;-0.068;2023-03-31T03:21:48;97129.72;;;8.91;100.00
69842;BME280;57138;51.326;-0.068;2023-03-31T03:24:17;97128.09;;;8.90;100.00
69842;BME280;57138;51.326;-0.068;2023-03-31T03:26:43;97109.69;;;8.89;100.00
69842;BME280;57138;51.326;-0.068;2023-03-31T03:29:10;97118.75;;;8.88;100.00
69842;BME280;57138;51.326;-0.068;2023-03-31T03:31:37;97128.59;;;8.87;100.00
69842;BME280;57138;51.326;-0.068;2023-03-31T03:34:03;97110.22;;;8.86;100.00
69842;BME280;57138;51.326;-0.068;2023-03-31T03:36:28;97104.03;;;8.80;100.00
69842;BME280;57138;51.326;-0.068;2023-03-31T03:38:54;97102.19;;;8.80;100.00
69842;BME280;57138;51.326;-0.068;2023-03-31T03:41:19;97087.00;;;8.81;100.00
69842;BME280;57138;51.326;-0.068;2023-03-31T03:43:44;97082.66;;;8.75;100.00
69842;BME280;57138;51.326;-0.068;2023-03-31T03:46:10;97096.78;;;8.75;100.00
69842;BME280;57138;51.326;-0.068;2023-03-31T03:48:35;97073.63;;;8.76;100.00
69842;BME280;57138;51.326;-0.068;2023-03-31T03:51:01;97068.31;;;8.76;100.00
69842;BME280;57138;51.326;-0.068;2023-03-31T03:53:26;97060.84;;;8.78;100.00
69842;BME280;57138;51.326;-0.068;2023-03-31T03:55:52;97075.72;;;8.74;100.00
69842;BME280;57138;51.326;-0.068;2023-03-31T03:58:17;97044.34;;;8.76;100.00
69842;BME280;57138;51.326;-0.068;2023-03-31T04:00:46;97046.19;;;8.75;100.00
69842;BME280;57138;51.326;-0.068;2023-03-31T04:03:12;97020.88;;;8.73;100.00
69842;BME280;57138;51.326;-0.068;2023-03-31T04:05:37;97011.81;;;8.74;100.00
69842;BME280;57138;51.326;-0.068;2023-03-31T04:08:03;97010.47;;;8.71;100.00
69842;BME280;57138;51.326;-0.068;2023-03-31T04:10:30;97008.84;;;8.70;100.00
69842;BME280;57138;51.326;-0.068;2023-03-31T04:12:55;97004.56;;;8.69;100.00
69842;BME280;57138;51.326;-0.068;2023-03-31T04:15:21;97008.59;;;8.72;100.00
69842;BME280;57138;51.326;-0.068;2023-03-31T04:17:46;97000.34;;;8.73;100.00
69842;BME280;57138;51.326;-0.068;2023-03-31T04:20:15;96995.28;;;8.72;100.00
69842;BME280;57138;51.326;-0.068;2023-03-31T04:22:41;96991.00;;;8.71;100.00
69842;BME280;57138;51.326;-0.068;2023-03-31T04:25:12;96986.50;;;8.71;100.00
69842;BME280;57138;51.326;-0.068;2023-03-31T04:27:42;96978.75;;;8.70;100.00
69842;BME280;57138;51.326;-0.068;2023-03-31T04:30:13;96993.63;;;8.66;100.00
69842;BME280;57138;51.326;-0.068;2023-03-31T04:32:56;96943.56;;;8.68;100.00
69842;BME280;57138;51.326;-0.068;2023-03-31T04:35:23;96942.78;;;8.67;100.00
69842;BME280;57138;51.326;-0.068;2023-03-31T04:37:50;96960.06;;;8.64;100.00
69842;BME280;57138;51.326;-0.068;2023-03-31T04:40:17;96942.00;;;8.67;100.00
69842;BME280;57138;51.326;-0.068;2023-03-31T04:42:43;96928.63;;;8.61;100.00
69842;BME280;57138;51.326;-0.068;2023-03-31T04:45:10;96949.91;;;8.56;100.00
69842;BME280;57138;51.326;-0.068;2023-03-31T04:47:36;96936.06;;;8.59;100.00
69842;BME280;57138;51.326;-0.068;2023-03-31T04:50:02;96922.22;;;8.57;100.00
69842;BME280;57138;51.326;-0.068;2023-03-31T04:52:27;96928.59;;;8.56;100.00
69842;BME280;57138;51.326;-0.068;2023-03-31T04:54:53;96916.06;;;8.57;100.00
69842;BME280;57138;51.326;-0.068;2023-03-31T04:57:18;96924.88;;;8.57;100.00
69842;BME280;57138;51.326;-0.068;2023-03-31T04:59:44;96905.94;;;8.54;100.00
69842;BME280;57138;51.326;-0.068;2023-03-31T05:02:10;96903.84;;;8.56;100.00
69842;BME280;57138;51.326;-0.068;2023-03-31T05:04:35;96892.09;;;8.57;100.00
69842;BME280;57138;51.326;-0.068;2023-03-31T05:07:01;96890.78;;;8.54;100.00
69842;BME280;57138;51.326;-0.068;2023-03-31T05:09:27;96890.78;;;8.54;100.00
69842;BME280;57138;51.326;-0.068;2023-03-31T05:11:52;96887.28;;;8.49;100.00
69842;BME280;57138;51.326;-0.068;2023-03-31T05:14:18;96875.84;;;8.48;100.00
69842;BME280;57138;51.326;-0.068;2023-03-31T05:16:43;96885.47;;;8.54;100.00
69842;BME280;57138;51.326;-0.068;2023-03-31T05:19:09;96874.81;;;8.54;100.00
69842;BME280;57138;51.326;-0.068;2023-03-31T05:21:34;96860.38;;;8.50;100.00
69842;BME280;57138;51.326;-0.068;2023-03-31T05:24:00;96872.91;;;8.50;100.00
69842;BME280;57138;51.326;-0.068;2023-03-31T05:26:25;96856.13;;;8.49;100.00
69842;BME280;57138;51.326;-0.068;2023-03-31T05:28:51;96852.94;;;8.52;100.00
69842;BME280;57138;51.326;-0.068;2023-03-31T05:31:17;96852.94;;;8.52;100.00
69842;BME280;57138;51.326;-0.068;2023-03-31T05:33:43;96834.81;;;8.49;100.00
69842;BME280;57138;51.326;-0.068;2023-03-31T05:36:10;96838.56;;;8.53;100.00
69842;BME280;57138;51.326;-0.068;2023-03-31T05:38:36;96850.53;;;8.51;100.00
69842;BME280;57138;51.326;-0.068;2023-03-31T05:41:02;96825.78;;;8.50;100.00
69842;BME280;57138;51.326;-0.068;2023-03-31T05:43:28;96837.22;;;8.51;100.00
69842;BME280;57138;51.326;-0.068;2023-03-31T05:45:53;96821.75;;;8.48;100.00
69842;BME280;57138;51.326;-0.068;2023-03-31T05:48:19;96825.00;;;8.50;100.00
69842;BME280;57138;51.326;-0.068;2023-03-31T05:50:45;96819.94;;;8.53;100.00
69842;BME280;57138;51.326;-0.068;2023-03-31T05:53:11;96815.13;;;8.50;100.00
69842;BME280;57138;51.326;-0.068;2023-03-31T05:55:36;96809.53;;;8.52;100.00
69842;BME280;57138;51.326;-0.068;2023-03-31T05:58:02;96807.41;;;8.49;100.00
69842;BME280;57138;51.326;-0.068;2023-03-31T06:00:27;96805.00;;;8.47;100.00
69842;BME280;57138;51.326;-0.068;2023-03-31T06:02:53;96808.19;;;8.49;100.00
69842;BME280;57138;51.326;-0.068;2023-03-31T06:05:18;96796.50;;;8.50;100.00
69842;BME280;57138;51.326;-0.068;2023-03-31T06:07:44;96784.75;;;8.46;100.00
69842;BME280;57138;51.326;-0.068;2023-03-31T06:10:09;96793.03;;;8.50;100.00
69842;BME280;57138;51.326;-0.068;2023-03-31T06:12:35;96791.69;;;8.47;100.00
69842;BME280;57138;51.326;-0.068;2023-03-31T06:15:01;96789.03;;;8.47;100.00
69842;BME280;57138;51.326;-0.068;2023-03-31T06:17:27;96793.81;;;8.50;100.00
69842;BME280;57138;51.326;-0.068;2023-03-31T06:19:52;96790.63;;;8.48;100.00
69842;BME280;57138;51.326;-0.068;2023-03-31T06:22:17;96773.56;;;8.44;100.00
69842;BME280;57138;51.326;-0.068;2023-03-31T06:24:43;96795.97;;;8.48;100.00
69842;BME280;57138;51.326;-0.068;2023-03-31T06:27:08;96781.28;;;8.45;100.00
69842;BME280;57138;51.326;-0.068;2023-03-31T06:29:33;96792.72;;;8.46;100.00
69842;BME280;57138;51.326;-0.068;2023-03-31T06:31:59;96793.56;;;8.47;100.00
69842;BME280;57138;51.326;-0.068;2023-03-31T06:34:25;96787.97;;;8.48;100.00
69842;BME280;57138;51.326;-0.068;2023-03-31T06:36:50;96775.19;;;8.45;100.00
69842;BME280;57138;51.326;-0.068;2023-03-31T06:39:16;96798.53;;;8.43;100.00
69842;BME280;57138;51.326;-0.068;2023-03-31T06:41:42;96782.66;;;8.48;100.00
69842;BME280;57138;51.326;-0.068;2023-03-31T06:44:08;96775.44;;;8.49;100.00
69842;BME280;57138;51.326;-0.068;2023-03-31T06:46:34;96789.59;;;8.54;100.00
69842;BME280;57138;51.326;-0.068;2023-03-31T06:49:00;96782.13;;;8.56;100.00
69842;BME280;57138;51.326;-0.068;2023-03-31T06:51:26;96781.09;;;8.57;100.00
69842;BME280;57138;51.326;-0.068;2023-03-31T06:53:51;96780.00;;;8.53;100.00
69842;BME280;57138;51.326;-0.068;2023-03-31T06:56:17;96771.50;;;8.56;100.00
69842;BME280;57138;51.326;-0.068;2023-03-31T06:58:42;96778.44;;;8.57;100.00
69842;BME280;57138;51.326;-0.068;2023-03-31T07:01:07;96768.84;;;8.61;100.00
69842;BME280;57138;51.326;-0.068;2023-03-31T07:03:35;96772.59;;;8.60;100.00
69842;BME280;57138;51.326;-0.068;2023-03-31T07:06:00;96767.25;;;8.60;100.00
69842;BME280;57138;51.326;-0.068;2023-03-31T07:08:25;96772.31;;;8.62;100.00
69842;BME280;57138;51.326;-0.068;2023-03-31T07:10:56;96778.97;;;8.64;100.00
69842;BME280;57138;51.326;-0.068;2023-03-31T07:13:22;96769.13;;;8.65;100.00
69842;BME280;57138;51.326;-0.068;2023-03-31T07:15:48;96770.72;;;8.61;100.00
69842;BME280;57138;51.326;-0.068;2023-03-31T07:18:15;96772.84;;;8.64;100.00
69842;BME280;57138;51.326;-0.068;2023-03-31T07:20:41;96770.47;;;8.68;100.00
69842;BME280;57138;51.326;-0.068;2023-03-31T07:23:07;96789.09;;;8.68;100.00
69842;BME280;57138;51.326;-0.068;2023-03-31T07:25:33;96776.09;;;8.71;100.00
69842;BME280;57138;51.326;-0.068;2023-03-31T07:27:59;96765.97;;;8.73;100.00
69842;BME280;57138;51.326;-0.068;2023-03-31T07:30:25;96764.34;;;8.72;100.00
69842;BME280;57138;51.326;-0.068;2023-03-31T07:32:51;96776.88;;;8.77;100.00
69842;BME280;57138;51.326;-0.068;2023-03-31T07:35:18;96769.97;;;8.76;100.00
69842;BME280;57138;51.326;-0.068;2023-03-31T07:37:46;96763.03;;;8.75;100.00
69842;BME280;57138;51.326;-0.068;2023-03-31T07:40:14;96776.38;;;8.80;100.00
69842;BME280;57138;51.326;-0.068;2023-03-31T07:42:41;96772.38;;;8.82;100.00
69842;BME280;57138;51.326;-0.068;2023-03-31T07:45:07;96784.34;;;8.80;100.00
69842;BME280;57138;51.326;-0.068;2023-03-31T07:47:33;96769.44;;;8.79;100.00
69842;BME280;57138;51.326;-0.068;2023-03-31T07:49:58;96758.28;;;8.82;100.00
69842;BME280;57138;51.326;-0.068;2023-03-31T07:52:24;96773.69;;;8.80;100.00
69842;BME280;57138;51.326;-0.068;2023-03-31T07:54:49;96768.91;;;8.77;100.00
69842;BME280;57138;51.326;-0.068;2023-03-31T07:57:15;96767.84;;;8.78;100.00
69842;BME280;57138;51.326;-0.068;2023-03-31T07:59:44;96764.38;;;8.77;100.00
69842;BME280;57138;51.326;-0.068;2023-03-31T08:02:11;96762.25;;;8.79;100.00
69842;BME280;57138;51.326;-0.068;2023-03-31T08:04:37;96769.47;;;8.84;100.00
69842;BME280;57138;51.326;-0.068;2023-03-31T08:07:07;96762.00;;;8.81;100.00
69842;BME280;57138;51.326;-0.068;2023-03-31T08:09:33;96765.75;;;8.85;100.00
69842;BME280;57138;51.326;-0.068;2023-03-31T08:11:59;96770.56;;;8.88;100.00
69842;BME280;57138;51.326;-0.068;2023-03-31T08:14:25;96756.72;;;8.91;100.00
69842;BME280;57138;51.326;-0.068;2023-03-31T08:16:50;96749.75;;;8.90;100.00
69842;BME280;57138;51.326;-0.068;2023-03-31T08:19:17;96756.72;;;8.96;100.00
69842;BME280;57138;51.326;-0.068;2023-03-31T08:21:43;96754.84;;;8.97;100.00
69842;BME280;57138;51.326;-0.068;2023-03-31T08:24:08;96746.03;;;8.91;100.00
69842;BME280;57138;51.326;-0.068;2023-03-31T08:26:33;96747.09;;;8.95;100.00
69842;BME280;57138;51.326;-0.068;2023-03-31T08:28:59;96752.97;;;8.97;100.00
69842;BME280;57138;51.326;-0.068;2023-03-31T08:31:25;96758.84;;;8.94;100.00
69842;BME280;57138;51.326;-0.068;2023-03-31T08:33:53;96750.28;;;8.92;100.00
69842;BME280;57138;51.326;-0.068;2023-03-31T08:36:18;96746.28;;;8.85;100.00
69842;BME280;57138;51.326;-0.068;2023-03-31T08:38:44;96755.63;;;8.87;100.00
69842;BME280;57138;51.326;-0.068;2023-03-31T08:47:16;96745.75;;;8.88;100.00
69842;BME280;57138;51.326;-0.068;2023-03-31T08:49:45;96750.28;;;8.87;100.00
69842;BME280;57138;51.326;-0.068;2023-03-31T08:52:19;96758.03;;;8.89;100.00
69842;BME280;57138;51.326;-0.068;2023-03-31T08:54:51;96748.41;;;8.88;100.00
69842;BME280;57138;51.326;-0.068;2023-03-31T08:57:23;96770.56;;;8.93;100.00
69842;BME280;57138;51.326;-0.068;2023-03-31T08:59:49;96745.53;;;8.94;100.00
69842;BME280;57138;51.326;-0.068;2023-03-31T09:05:34;96744.97;;;8.97;100.00
69842;BME280;57138;51.326;-0.068;2023-03-31T09:10:53;96741.78;;;9.00;100.00
69842;BME280;57138;51.326;-0.068;2023-03-31T09:16:20;96736.44;;;9.00;100.00
69842;BME280;57138;51.326;-0.068;2023-03-31T09:18:49;96741.81;;;9.06;100.00
69842;BME280;57138;51.326;-0.068;2023-03-31T09:21:39;96746.59;;;9.09;100.00
69842;BME280;57138;51.326;-0.068;2023-03-31T09:24:16;96747.41;;;9.09;100.00
69842;BME280;57138;51.326;-0.068;2023-03-31T09:27:00;96732.72;;;9.07;100.00
69842;BME280;57138;51.326;-0.068;2023-03-31T09:29:39;96731.69;;;9.03;100.00
69842;BME280;57138;51.326;-0.068;2023-03-31T09:32:15;96732.72;;;9.02;100.00
69842;BME280;57138;51.326;-0.068;2023-03-31T09:34:44;96729.81;;;9.08;100.00
69842;BME280;57138;51.326;-0.068;2023-03-31T09:37:11;96732.72;;;9.07;100.00
69842;BME280;57138;51.326;-0.068;2023-03-31T09:39:38;96716.22;;;9.10;100.00
69842;BME280;57138;51.326;-0.068;2023-03-31T09:42:04;96725.03;;;9.10;100.00
69842;BME280;57138;51.326;-0.068;2023-03-31T09:47:10;96716.22;;;9.15;100.00
69842;BME280;57138;51.326;-0.068;2023-03-31T09:49:39;96710.63;;;9.16;100.00
69842;BME280;57138;51.326;-0.068;2023-03-31T09:52:30;96721.56;;;9.20;100.00
69842;BME280;57138;51.326;-0.068;2023-03-31T09:54:59;96714.63;;;9.19;100.00
69842;BME280;57138;51.326;-0.068;2023-03-31T09:57:34;96709.56;;;9.23;100.00
69842;BME280;57138;51.326;-0.068;2023-03-31T10:00:12;96714.66;;;9.24;100.00
69842;BME280;57138;51.326;-0.068;2023-03-31T10:08:33;96716.22;;;9.41;100.00
69842;BME280;57138;51.326;-0.068;2023-03-31T10:16:04;96722.38;;;9.41;100.00
69842;BME280;57138;51.326;-0.068;2023-03-31T10:18:35;96713.03;;;9.39;100.00
69842;BME280;57138;51.326;-0.068;2023-03-31T10:21:04;96725.84;;;9.37;100.00
69842;BME280;57138;51.326;-0.068;2023-03-31T10:23:33;96720.22;;;9.33;100.00
69842;BME280;57138;51.326;-0.068;2023-03-31T10:26:00;96708.78;;;9.32;100.00
69842;BME280;57138;51.326;-0.068;2023-03-31T10:28:31;96712.78;;;9.35;100.00
69842;BME280;57138;51.326;-0.068;2023-03-31T10:30:59;96727.97;;;9.34;100.00
69842;BME280;57138;51.326;-0.068;2023-03-31T10:33:32;96726.38;;;9.33;100.00
69842;BME280;57138;51.326;-0.068;2023-03-31T10:36:02;96730.88;;;9.33;100.00
69842;BME280;57138;51.326;-0.068;2023-03-31T10:38:41;96730.91;;;9.38;100.00
69842;BME280;57138;51.326;-0.068;2023-03-31T10:41:11;96729.03;;;9.39;100.00
69842;BME280;57138;51.326;-0.068;2023-03-31T10:43:40;96732.78;;;9.48;100.00
69842;BME280;57138;51.326;-0.068;2023-03-31T10:46:06;96737.56;;;9.51;100.00
69842;BME280;57138;51.326;-0.068;2023-03-31T10:48:35;96736.50;;;9.57;100.00
69842;BME280;57138;51.326;-0.068;2023-03-31T10:51:20;96749.28;;;9.65;100.00
69842;BME280;57138;51.326;-0.068;2023-03-31T10:53:54;96747.69;;;9.69;100.00
69842;BME280;57138;51.326;-0.068;2023-03-31T11:07:00;96749.28;;;9.86;100.00
69842;BME280;57138;51.326;-0.068;2023-03-31T11:09:42;96763.69;;;9.90;100.00
69842;BME280;57138;51.326;-0.068;2023-03-31T11:20:40;96778.63;;;9.96;100.00
69842;BME280;57138;51.326;-0.068;2023-03-31T11:23:20;96778.63;;;9.96;100.00
69842;BME280;57138;51.326;-0.068;2023-03-31T11:34:54;96801.00;;;10.11;100.00
69842;BME280;57138;51.326;-0.068;2023-03-31T11:37:39;96797.81;;;10.14;100.00
69842;BME280;57138;51.326;-0.068;2023-03-31T11:43:04;96810.34;;;10.13;100.00
69842;BME280;57138;51.326;-0.068;2023-03-31T11:45:45;96811.16;;;10.14;100.00
69842;BME280;57138;51.326;-0.068;2023-03-31T11:48:36;96819.16;;;10.24;100.00
69842;BME280;57138;51.326;-0.068;2023-03-31T11:51:08;96826.34;;;10.29;100.00
69842;BME280;57138;51.326;-0.068;2023-03-31T11:53:36;96827.66;;;10.31;100.00
69842;BME280;57138;51.326;-0.068;2023-03-31T11:56:04;96824.22;;;10.36;100.00
69842;BME280;57138;51.326;-0.068;2023-03-31T12:01:28;96835.13;;;10.50;100.00
69842;BME280;57138;51.326;-0.068;2023-03-31T12:04:19;96839.41;;;10.51;100.00
69842;BME280;57138;51.326;-0.068;2023-03-31T12:07:00;96846.91;;;10.54;100.00
69842;BME280;57138;51.326;-0.068;2023-03-31T12:09:42;96856.22;;;10.61;100.00
69842;BME280;57138;51.326;-0.068;2023-03-31T12:12:26;96851.91;;;10.66;100.00
69842;BME280;57138;51.326;-0.068;2023-03-31T12:17:46;96866.59;;;10.73;100.00
69842;BME280;57138;51.326;-0.068;2023-03-31T12:20:20;96869.53;;;10.72;100.00
69842;BME280;57138;51.326;-0.068;2023-03-31T12:22:52;96878.63;;;10.76;100.00
69842;BME280;57138;51.326;-0.068;2023-03-31T12:25:23;96874.06;;;10.76;100.00
69842;BME280;57138;51.326;-0.068;2023-03-31T12:27:53;96886.34;;;10.83;100.00
69842;BME280;57138;51.326;-0.068;2023-03-31T12:30:32;96895.44;;;10.87;100.00
69842;BME280;57138;51.326;-0.068;2023-03-31T12:33:30;96888.47;;;10.91;100.00
69842;BME280;57138;51.326;-0.068;2023-03-31T12:42:00;96898.00;;;11.18;100.00
69842;BME280;57138;51.326;-0.068;2023-03-31T12:50:48;96900.25;;;11.45;100.00
69842;BME280;57138;51.326;-0.068;2023-03-31T12:55:57;96899.66;;;11.58;100.00
69842;BME280;57138;51.326;-0.068;2023-03-31T13:01:16;96913.78;;;11.64;100.00
69842;BME280;57138;51.326;-0.068;2023-03-31T13:11:37;96920.00;;;12.04;99.79
69842;BME280;57138;51.326;-0.068;2023-03-31T13:14:12;96922.69;;;12.04;99.15
69842;BME280;57138;51.326;-0.068;2023-03-31T13:16:40;96935.88;;;11.95;99.21
69842;BME280;57138;51.326;-0.068;2023-03-31T13:19:06;96939.91;;;11.87;99.31
69842;BME280;57138;51.326;-0.068;2023-03-31T13:21:56;96937.88;;;11.69;100.00
69842;BME280;57138;51.326;-0.068;2023-03-31T13:24:23;96941.41;;;11.54;99.85
69842;BME280;57138;51.326;-0.068;2023-03-31T13:26:50;96929.47;;;11.36;99.87
69842;BME280;57138;51.326;-0.068;2023-03-31T13:29:21;96957.03;;;11.26;100.00
69842;BME280;57138;51.326;-0.068;2023-03-31T13:34:42;96941.38;;;10.99;100.00
69842;BME280;57138;51.326;-0.068;2023-03-31T13:45:57;96979.59;;;11.00;100.00
69842;BME280;57138;51.326;-0.068;2023-03-31T13:57:02;97003.91;;;10.98;100.00
69842;BME280;57138;51.326;-0.068;2023-03-31T14:07:53;97008.19;;;11.04;100.00
69842;BME280;57138;51.326;-0.068;2023-03-31T14:10:33;97022.63;;;10.93;100.00
69842;BME280;57138;51.326;-0.068;2023-03-31T14:13:11;97023.44;;;10.78;100.00
69842;BME280;57138;51.326;-0.068;2023-03-31T14:15:41;97041.63;;;10.71;100.00
69842;BME280;57138;51.326;-0.068;2023-03-31T14:18:11;97048.31;;;10.63;100.00
69842;BME280;57138;51.326;-0.068;2023-03-31T14:31:23;97077.13;;;10.35;100.00
69842;BME280;57138;51.326;-0.068;2023-03-31T14:36:58;97082.94;;;10.22;100.00
69842;BME280;57138;51.326;-0.068;2023-03-31T14:39:34;97103.50;;;10.21;100.00
69842;BME280;57138;51.326;-0.068;2023-03-31T14:42:06;97085.59;;;10.17;100.00
69842;BME280;57138;51.326;-0.068;2023-03-31T14:44:36;97099.16;;;10.05;100.00
69842;BME280;57138;51.326;-0.068;2023-03-31T14:47:02;97097.25;;;9.90;100.00
69842;BME280;57138;51.326;-0.068;2023-03-31T14:49:37;97116.47;;;9.92;100.00
69842;BME280;57138;51.326;-0.068;2023-03-31T14:52:17;97105.25;;;9.95;100.00
69842;BME280;57138;51.326;-0.068;2023-03-31T14:54:44;97117.28;;;9.98;100.00
69842;BME280;57138;51.326;-0.068;2023-03-31T14:57:16;97112.75;;;9.98;100.00
69842;BME280;57138;51.326;-0.068;2023-03-31T14:59:45;97115.41;;;9.98;100.00
69842;BME280;57138;51.326;-0.068;2023-03-31T15:02:16;97122.13;;;10.01;100.00
69842;BME280;57138;51.326;-0.068;2023-03-31T15:04:46;97128.25;;;10.01;100.00
69842;BME280;57138;51.326;-0.068;2023-03-31T15:07:14;97129.59;;;9.99;100.00
69842;BME280;57138;51.326;-0.068;2023-03-31T15:09:44;97138.91;;;9.96;100.00
69842;BME280;57138;51.326;-0.068;2023-03-31T15:12:16;97145.56;;;9.94;100.00
69842;BME280;57138;51.326;-0.068;2023-03-31T15:14:57;97161.28;;;9.90;100.00
69842;BME280;57138;51.326;-0.068;2023-03-31T15:17:31;97160.19;;;9.86;100.00
69842;BME280;57138;51.326;-0.068;2023-03-31T15:20:17;97151.13;;;9.87;100.00
69842;BME280;57138;51.326;-0.068;2023-03-31T15:22:45;97157.00;;;9.84;100.00
69842;BME280;57138;51.326;-0.068;2023-03-31T15:25:12;97142.56;;;9.80;100.00
69842;BME280;57138;51.326;-0.068;2023-03-31T15:28:03;97156.94;;;9.74;100.00
69842;BME280;57138;51.326;-0.068;2023-03-31T15:30:30;97161.19;;;9.69;100.00
69842;BME280;57138;51.326;-0.068;2023-03-31T15:32:55;97163.81;;;9.64;100.00
69842;BME280;57138;51.326;-0.068;2023-03-31T15:35:24;97178.78;;;9.70;100.00
69842;BME280;57138;51.326;-0.068;2023-03-31T15:37:53;97178.78;;;9.70;100.00
69842;BME280;57138;51.326;-0.068;2023-03-31T15:42:47;97176.09;;;9.65;100.00
69842;BME280;57138;51.326;-0.068;2023-03-31T15:47:53;97211.31;;;9.67;100.00
69842;BME280;57138;51.326;-0.068;2023-03-31T15:50:21;97205.97;;;9.67;100.00
69842;BME280;57138;51.326;-0.068;2023-03-31T15:52:54;97217.72;;;9.66;100.00